Time;durP1;ratioP1;P1;durP2;ratioP2;P2;SDS_P1;SDS_P2;PMS_P1;PMS_P2;Temp;Humidity;BMP_temperature;BMP_pressure;BME280_temperature;BME280_humidity;BME280_pressure;Samples;Min_cycle;Max_cycle;Signal;HPM_P1;HPM_P2
2022/08/19 00:00:15;;;;;;;11.30;9.53;;;;;;;;;;5052273;28;20427;-76
2022/08/19 00:02:41;;;;;;;13.40;11.30;;;;;;;;;;5052937;28;20417;-76
2022/08/19 00:05:08;;;;;;;10.80;9.70;;;;;;;;;;5053272;28;20759;-76
2022/08/19 00:07:35;;;;;;;11.10;10.00;;;;;;;;;;5052808;28;20439;-76
2022/08/19 00:10:01;;;;;;;12.83;11.57;;;;;;;;;;5052639;28;20403;-76
2022/08/19 00:12:27;;;;;;;11.37;10.33;;;;;;;;;;5053190;28;20406;-77
2022/08/19 00:14:54;;;;;;;12.70;10.67;;;;;;;;;;5052779;28;20467;-76
2022/08/19 00:17:20;;;;;;;12.23;11.10;;;;;;;;;;5052922;28;20389;-76
2022/08/19 00:19:46;;;;;;;12.43;10.60;;;;;;;;;;5052604;28;20823;-76
2022/08/19 00:22:12;;;;;;;10.70;9.70;;;;;;;;;;5052697;28;20430;-75
2022/08/19 00:24:38;;;;;;;11.57;9.50;;;;;;;;;;5052695;28;20419;-76
2022/08/19 00:27:04;;;;;;;12.13;10.10;;;;;;;;;;5053140;28;20475;-76
2022/08/19 00:29:30;;;;;;;11.33;10.10;;;;;;;;;;5052538;28;20412;-76
2022/08/19 00:31:58;;;;;;;13.97;10.57;;;;;;;;;;5052718;28;20400;-76
2022/08/19 00:34:27;;;;;;;11.03;10.03;;;;;;;;;;5052780;28;20415;-78
2022/08/19 00:36:53;;;;;;;13.83;9.90;;;;;;;;;;5052773;28;20969;-76
2022/08/19 00:39:19;;;;;;;11.60;10.53;;;;;;;;;;5052765;28;20767;-76
2022/08/19 00:41:48;;;;;;;12.27;11.07;;;;;;;;;;5052364;28;20418;-76
2022/08/19 00:44:14;;;;;;;13.10;11.87;;;;;;;;;;5052600;28;20388;-76
2022/08/19 00:46:42;;;;;;;10.93;9.87;;;;;;;;;;5052610;28;20448;-76
2022/08/19 00:49:14;;;;;;;11.10;10.17;;;;;;;;;;5052743;28;20739;-75
2022/08/19 00:51:41;;;;;;;12.27;11.17;;;;;;;;;;5052232;28;20458;-76
2022/08/19 00:54:08;;;;;;;11.20;10.20;;;;;;;;;;5052564;28;20382;-75
2022/08/19 00:56:35;;;;;;;12.80;11.10;;;;;;;;;;5052702;28;20442;-77
2022/08/19 00:59:01;;;;;;;11.40;10.40;;;;;;;;;;5052542;28;20846;-77
2022/08/19 01:01:27;;;;;;;11.07;10.03;;;;;;;;;;5052302;28;20941;-75
2022/08/19 01:03:54;;;;;;;11.23;10.00;;;;;;;;;;5052956;28;20900;-76
2022/08/19 01:06:20;;;;;;;11.33;10.37;;;;;;;;;;5052382;28;20430;-76
2022/08/19 01:08:46;;;;;;;13.17;11.87;;;;;;;;;;5052533;28;20761;-76
2022/08/19 01:11:13;;;;;;;12.07;10.97;;;;;;;;;;5052380;28;20792;-77
2022/08/19 01:13:39;;;;;;;12.37;11.17;;;;;;;;;;5054942;28;20383;-75
2022/08/19 01:16:07;;;;;;;13.40;11.90;;;;;;;;;;5056100;28;20376;-77
2022/08/19 01:18:36;;;;;;;11.47;10.37;;;;;;;;;;5056000;28;20420;-76
2022/08/19 01:21:06;;;;;;;12.27;10.90;;;;;;;;;;5055557;28;20433;-77
2022/08/19 01:23:44;;;;;;;12.43;11.30;;;;;;;;;;5055633;28;20416;-75
2022/08/19 01:26:11;;;;;;;12.33;11.13;;;;;;;;;;5055901;28;20446;-75
2022/08/19 01:28:38;;;;;;;12.60;11.03;;;;;;;;;;5055586;28;20435;-76
2022/08/19 01:31:04;;;;;;;12.40;11.23;;;;;;;;;;5055312;28;20519;-77
2022/08/19 01:33:30;;;;;;;12.73;11.43;;;;;;;;;;5055394;28;20402;-77
2022/08/19 01:36:07;;;;;;;13.10;11.77;;;;;;;;;;5055619;28;20416;-77
2022/08/19 01:38:36;;;;;;;13.53;11.53;;;;;;;;;;5055884;28;20418;-76
2022/08/19 01:41:02;;;;;;;12.30;11.20;;;;;;;;;;5055168;28;20896;-77
2022/08/19 01:43:28;;;;;;;13.53;11.20;;;;;;;;;;5055498;28;20453;-76
2022/08/19 01:45:55;;;;;;;13.07;11.97;;;;;;;;;;5055359;28;20461;-78
2022/08/19 01:48:21;;;;;;;13.20;11.20;;;;;;;;;;5055234;28;20424;-77
2022/08/19 01:50:47;;;;;;;11.90;10.70;;;;;;;;;;5055164;28;20798;-77
2022/08/19 01:53:13;;;;;;;13.47;11.20;;;;;;;;;;5055274;28;20413;-77
2022/08/19 01:55:41;;;;;;;13.33;11.70;;;;;;;;;;5055008;28;20412;-75
2022/08/19 01:58:09;;;;;;;14.17;12.57;;;;;;;;;;5055177;28;20415;-77
2022/08/19 02:00:35;;;;;;;13.47;12.17;;;;;;;;;;5054845;28;20429;-77
2022/08/19 02:03:01;;;;;;;16.73;14.97;;;;;;;;;;5055099;28;20781;-76
2022/08/19 02:05:29;;;;;;;12.80;11.60;;;;;;;;;;5055360;28;20383;-75
2022/08/19 02:07:55;;;;;;;12.43;11.23;;;;;;;;;;5054912;28;20553;-75
2022/08/19 02:10:22;;;;;;;13.57;11.10;;;;;;;;;;5054739;28;20736;-76
2022/08/19 02:12:52;;;;;;;12.70;11.40;;;;;;;;;;5054998;28;20712;-75
2022/08/19 02:15:19;;;;;;;13.07;11.87;;;;;;;;;;5021001;28;20442;-75
2022/08/19 02:17:45;;;;;;;17.03;13.53;;;;;;;;;;5054650;28;20787;-76
2022/08/19 02:20:12;;;;;;;11.70;10.70;;;;;;;;;;5054336;28;20474;-75
2022/08/19 02:22:41;;;;;;;18.30;12.67;;;;;;;;;;5054572;28;20404;-77
2022/08/19 02:25:07;;;;;;;12.20;11.13;;;;;;;;;;5054462;28;20739;-75
2022/08/19 02:27:33;;;;;;;12.00;10.87;;;;;;;;;;5054450;28;20856;-76
2022/08/19 02:30:00;;;;;;;12.87;11.57;;;;;;;;;;5054129;28;20440;-75
2022/08/19 02:32:27;;;;;;;12.70;11.47;;;;;;;;;;5054535;28;20397;-75
2022/08/19 02:34:53;;;;;;;13.90;12.40;;;;;;;;;;5054584;28;20499;-75
2022/08/19 02:40:04;;;;;;;12.67;11.40;;;;;;;;;;5054110;28;20881;-75
2022/08/19 02:42:31;;;;;;;15.03;13.43;;;;;;;;;;5054187;28;20428;-77
2022/08/19 02:44:57;;;;;;;12.90;11.63;;;;;;;;;;5054206;28;20429;-76
2022/08/19 02:47:23;;;;;;;16.67;14.03;;;;;;;;;;5053991;28;20465;-75
2022/08/19 02:49:51;;;;;;;17.07;13.10;;;;;;;;;;5036129;28;20448;-75
2022/08/19 02:52:18;;;;;;;13.57;12.27;;;;;;;;;;5054135;28;20430;-75
2022/08/19 02:54:43;;;;;;;18.00;13.30;;;;;;;;;;5054045;28;20383;-75
2022/08/19 02:57:10;;;;;;;16.50;14.70;;;;;;;;;;5053910;28;20491;-76
2022/08/19 02:59:36;;;;;;;16.77;15.17;;;;;;;;;;5053711;28;20857;-75
2022/08/19 03:02:02;;;;;;;15.73;14.33;;;;;;;;;;5053770;28;20454;-75
2022/08/19 03:04:29;;;;;;;15.80;14.40;;;;;;;;;;5053986;28;20787;-75
2022/08/19 03:06:55;;;;;;;15.17;13.33;;;;;;;;;;5053802;28;20464;-75
2022/08/19 03:09:21;;;;;;;16.47;14.97;;;;;;;;;;5053830;28;20409;-75
2022/08/19 03:11:47;;;;;;;15.30;13.80;;;;;;;;;;5058740;28;20436;-75
2022/08/19 03:14:14;;;;;;;15.40;13.90;;;;;;;;;;5053633;28;20410;-75
2022/08/19 03:16:42;;;;;;;17.87;15.53;;;;;;;;;;5053892;28;20404;-77
2022/08/19 03:19:08;;;;;;;18.53;14.10;;;;;;;;;;5054030;28;20431;-77
2022/08/19 03:21:34;;;;;;;15.17;13.57;;;;;;;;;;5053257;28;20531;-77
2022/08/19 03:24:02;;;;;;;15.57;14.10;;;;;;;;;;5053769;28;20770;-77
2022/08/19 03:26:29;;;;;;;15.80;14.30;;;;;;;;;;5035946;28;20974;-77
2022/08/19 03:28:55;;;;;;;16.70;14.90;;;;;;;;;;5053964;28;20465;-77
2022/08/19 03:31:22;;;;;;;16.90;15.10;;;;;;;;;;5053721;28;20446;-78
2022/08/19 03:33:49;;;;;;;18.07;16.13;;;;;;;;;;5035618;28;20391;-75
2022/08/19 03:36:22;;;;;;;19.77;17.63;;;;;;;;;;5052717;28;20417;-76
2022/08/19 03:38:50;;;;;;;16.37;14.80;;;;;;;;;;5053412;28;20435;-77
2022/08/19 03:41:20;;;;;;;19.43;17.23;;;;;;;;;;5053057;28;20494;-76
2022/08/19 03:43:48;;;;;;;16.10;14.70;;;;;;;;;;5035694;28;20448;-75
2022/08/19 03:46:16;;;;;;;30.83;13.70;;;;;;;;;;5053116;28;20391;-77
2022/08/19 03:48:43;;;;;;;15.97;14.40;;;;;;;;;;5061146;28;20439;-76
2022/08/19 03:51:16;;;;;;;15.03;13.43;;;;;;;;;;5069751;28;20406;-77
2022/08/19 03:53:42;;;;;;;13.83;12.33;;;;;;;;;;5073240;28;20430;-76
2022/08/19 03:56:09;;;;;;;16.90;13.17;;;;;;;;;;5073362;28;20412;-77
2022/08/19 03:58:37;;;;;;;15.17;13.70;;;;;;;;;;5073172;28;20390;-77
2022/08/19 04:01:03;;;;;;;16.43;15.00;;;;;;;;;;5072751;28;20402;-77
2022/08/19 04:03:29;;;;;;;18.03;16.30;;;;;;;;;;5073033;28;20420;-76
2022/08/19 04:05:55;;;;;;;18.00;15.00;;;;;;;;;;5072901;28;20890;-76
2022/08/19 04:08:22;;;;;;;17.30;15.50;;;;;;;;;;5055004;28;20481;-77
2022/08/19 04:10:48;;;;;;;17.23;15.20;;;;;;;;;;5072491;28;20409;-75
2022/08/19 04:13:18;;;;;;;18.90;16.57;;;;;;;;;;5073159;28;20436;-78
2022/08/19 04:15:46;;;;;;;16.23;14.63;;;;;;;;;;5073102;28;20382;-77
2022/08/19 04:18:12;;;;;;;17.10;15.40;;;;;;;;;;5073072;28;20408;-75
2022/08/19 04:20:41;;;;;;;17.37;15.57;;;;;;;;;;5072380;28;20430;-75
2022/08/19 04:23:08;;;;;;;21.07;18.20;;;;;;;;;;5072998;28;20461;-76
2022/08/19 04:25:38;;;;;;;20.60;16.60;;;;;;;;;;5054840;28;20455;-76
2022/08/19 04:28:04;;;;;;;18.77;16.77;;;;;;;;;;5072813;28;20438;-76
2022/08/19 04:30:30;;;;;;;18.87;17.07;;;;;;;;;;5072423;28;20431;-77
2022/08/19 04:32:56;;;;;;;18.73;16.93;;;;;;;;;;5072679;28;20416;-78
2022/08/19 04:35:22;;;;;;;20.00;18.07;;;;;;;;;;5072857;28;20407;-77
2022/08/19 04:37:48;;;;;;;23.27;20.93;;;;;;;;;;5072871;28;20412;-79
2022/08/19 04:42:59;;;;;;;25.20;21.83;;;;;;;;;;5072918;28;20415;-78
2022/08/19 04:45:25;;;;;;;25.10;22.03;;;;;;;;;;5072749;28;20375;-78
2022/08/19 04:47:56;;;;;;;29.47;21.93;;;;;;;;;;5075473;28;20441;-79
2022/08/19 04:50:22;;;;;;;25.33;21.73;;;;;;;;;;5058246;28;20922;-77
2022/08/19 04:52:50;;;;;;;22.20;20.00;;;;;;;;;;5076131;28;20408;-76
2022/08/19 04:55:17;;;;;;;20.73;18.63;;;;;;;;;;5076369;28;20537;-77
2022/08/19 04:57:43;;;;;;;21.67;19.47;;;;;;;;;;5076016;28;20390;-77
2022/08/19 05:00:10;;;;;;;21.23;18.80;;;;;;;;;;5075414;28;20460;-77
2022/08/19 05:02:36;;;;;;;22.63;19.77;;;;;;;;;;5058646;28;20416;-77
2022/08/19 05:05:03;;;;;;;23.20;19.50;;;;;;;;;;5076014;28;20393;-76
2022/08/19 05:07:29;;;;;;;21.70;19.50;;;;;;;;;;5076047;28;20475;-77
2022/08/19 05:09:55;;;;;;;26.63;21.10;;;;;;;;;;5075737;28;20418;-76
2022/08/19 05:12:21;;;;;;;29.23;20.93;;;;;;;;;;5076055;28;20483;-77
2022/08/19 05:14:47;;;;;;;23.73;21.37;;;;;;;;;;5058011;28;20966;-78
2022/08/19 05:17:14;;;;;;;25.13;22.47;;;;;;;;;;5075761;28;20507;-76
2022/08/19 05:22:37;;;;;;;22.90;20.50;;;;;;;;;;5076102;28;20403;-77
2022/08/19 05:25:07;;;;;;;27.03;20.67;;;;;;;;;;5075612;28;20367;-77
2022/08/19 05:27:34;;;;;;;28.83;24.90;;;;;;;;;;5075573;28;20463;-76
2022/08/19 05:30:01;;;;;;;29.43;22.57;;;;;;;;;;5075628;28;20723;-77
2022/08/19 05:32:27;;;;;;;29.07;25.50;;;;;;;;;;5075622;28;20450;-76
2022/08/19 05:34:53;;;;;;;27.43;24.53;;;;;;;;;;5075687;28;20378;-76
2022/08/19 05:37:19;;;;;;;26.23;23.63;;;;;;;;;;5075243;28;20796;-78
2022/08/19 05:39:45;;;;;;;31.50;26.50;;;;;;;;;;5075175;28;20744;-77
2022/08/19 05:42:12;;;;;;;28.50;25.60;;;;;;;;;;5057480;28;20982;-77
2022/08/19 05:44:43;;;;;;;31.60;27.83;;;;;;;;;;5075639;28;20423;-77
2022/08/19 05:47:09;;;;;;;29.67;26.47;;;;;;;;;;5075242;28;20451;-76
2022/08/19 05:49:36;;;;;;;34.23;28.93;;;;;;;;;;5075394;28;20389;-77
2022/08/19 05:52:04;;;;;;;49.47;37.13;;;;;;;;;;5075149;28;20516;-76
2022/08/19 05:54:30;;;;;;;42.57;36.13;;;;;;;;;;5066004;28;20951;-77
2022/08/19 05:56:56;;;;;;;42.77;38.07;;;;;;;;;;5055319;28;20426;-77
2022/08/19 05:59:23;;;;;;;53.53;43.90;;;;;;;;;;5054606;28;20387;-78
2022/08/19 06:01:50;;;;;;;45.37;40.47;;;;;;;;;;5054847;28;20460;-77
2022/08/19 06:04:18;;;;;;;47.23;40.27;;;;;;;;;;5055100;28;20496;-77
2022/08/19 06:06:44;;;;;;;48.03;38.10;;;;;;;;;;5054811;28;20415;-77
2022/08/19 06:09:10;;;;;;;50.03;43.17;;;;;;;;;;5054783;28;20792;-76
2022/08/19 06:11:36;;;;;;;46.33;40.00;;;;;;;;;;5054238;28;20453;-77
2022/08/19 06:14:05;;;;;;;48.50;43.17;;;;;;;;;;5037311;28;20408;-77
2022/08/19 06:16:34;;;;;;;53.93;44.80;;;;;;;;;;5054909;28;20405;-78
2022/08/19 06:19:01;;;;;;;49.43;42.30;;;;;;;;;;5054992;28;20459;-78
2022/08/19 06:21:28;;;;;;;45.37;40.27;;;;;;;;;;5036403;28;20448;-76
2022/08/19 06:23:55;;;;;;;49.67;41.27;;;;;;;;;;5037269;28;20428;-77
2022/08/19 06:26:21;;;;;;;54.40;45.87;;;;;;;;;;5054592;28;20407;-76
2022/08/19 06:28:48;;;;;;;50.10;44.73;;;;;;;;;;5054646;28;20456;-77
2022/08/19 06:31:20;;;;;;;50.67;43.67;;;;;;;;;;5054222;28;20433;-77
2022/08/19 06:33:46;;;;;;;49.33;43.93;;;;;;;;;;5054261;28;20466;-77
2022/08/19 06:36:18;;;;;;;58.63;44.10;;;;;;;;;;5054449;28;20382;-76
2022/08/19 06:38:44;;;;;;;51.53;43.97;;;;;;;;;;5054512;28;20407;-77
2022/08/19 06:41:10;;;;;;;54.90;45.37;;;;;;;;;;5036110;28;20439;-77
2022/08/19 06:43:37;;;;;;;55.53;43.97;;;;;;;;;;5036396;28;20427;-77
2022/08/19 06:46:04;;;;;;;53.10;42.97;;;;;;;;;;5053962;28;20779;-76
2022/08/19 06:48:31;;;;;;;54.70;45.07;;;;;;;;;;5054234;28;20463;-78
2022/08/19 06:50:57;;;;;;;61.37;47.33;;;;;;;;;;5053905;28;20502;-77
2022/08/19 06:53:23;;;;;;;54.80;46.57;;;;;;;;;;5054106;28;20387;-76
2022/08/19 06:55:54;;;;;;;50.67;43.83;;;;;;;;;;5036461;28;20749;-77
2022/08/19 06:58:20;;;;;;;56.00;43.37;;;;;;;;;;5054019;28;20372;-77
2022/08/19 07:00:46;;;;;;;53.43;44.70;;;;;;;;;;5059976;28;20439;-75
2022/08/19 07:03:12;;;;;;;66.53;46.47;;;;;;;;;;5073898;28;20423;-76
2022/08/19 07:05:40;;;;;;;62.30;47.10;;;;;;;;;;5073631;28;20446;-76
2022/08/19 07:08:07;;;;;;;60.50;46.50;;;;;;;;;;5056530;28;20485;-77
2022/08/19 07:10:34;;;;;;;68.27;48.63;;;;;;;;;;5052480;28;20511;-76
2022/08/19 07:13:00;;;;;;;65.27;47.10;;;;;;;;;;5053862;28;20441;-75
2022/08/19 07:15:26;;;;;;;63.03;49.47;;;;;;;;;;5054184;28;20420;-75
2022/08/19 07:17:52;;;;;;;70.30;48.70;;;;;;;;;;5072908;28;20428;-76
2022/08/19 07:20:19;;;;;;;58.80;48.63;;;;;;;;;;5058547;28;20890;-76
2022/08/19 07:22:45;;;;;;;62.90;46.27;;;;;;;;;;5069546;28;20919;-76
2022/08/19 07:25:13;;;;;;;63.27;46.37;;;;;;;;;;5073330;28;20428;-75
2022/08/19 07:27:39;;;;;;;64.73;47.97;;;;;;;;;;5055505;28;20441;-74
2022/08/19 07:30:05;;;;;;;61.50;47.53;;;;;;;;;;5072987;28;20467;-75
2022/08/19 07:32:31;;;;;;;63.63;47.37;;;;;;;;;;5073379;28;20779;-74
2022/08/19 07:34:57;;;;;;;68.77;48.83;;;;;;;;;;5073347;28;20413;-75
2022/08/19 07:37:26;;;;;;;70.27;49.20;;;;;;;;;;5073389;28;20891;-74
2022/08/19 07:39:52;;;;;;;65.80;47.17;;;;;;;;;;5072905;28;20775;-75
2022/08/19 07:42:20;;;;;;;79.67;49.53;;;;;;;;;;5073129;28;21081;-77
2022/08/19 07:44:46;;;;;;;72.40;49.70;;;;;;;;;;5070040;28;20758;-75
2022/08/19 07:47:15;;;;;;;83.67;50.47;;;;;;;;;;5053276;28;20541;-75
2022/08/19 07:49:41;;;;;;;69.30;48.30;;;;;;;;;;5052915;28;20411;-76
2022/08/19 07:52:10;;;;;;;70.00;47.37;;;;;;;;;;5053088;28;20429;-75
2022/08/19 07:54:37;;;;;;;73.33;49.53;;;;;;;;;;5055844;28;20401;-75
2022/08/19 07:57:04;;;;;;;75.20;51.17;;;;;;;;;;5058394;28;20495;-75
2022/08/19 07:59:30;;;;;;;73.73;49.87;;;;;;;;;;5053063;28;20947;-78
2022/08/19 08:01:57;;;;;;;71.20;49.93;;;;;;;;;;5052993;28;20409;-75
2022/08/19 08:09:53;;;;;;;68.13;48.93;;;;;;;;;;5053142;28;20877;-75
2022/08/19 08:12:23;;;;;;;67.93;50.23;;;;;;;;;;5052753;28;20412;-75
2022/08/19 08:14:51;;;;;;;68.63;49.67;;;;;;;;;;5052933;28;20812;-75
2022/08/19 08:17:18;;;;;;;65.27;43.80;;;;;;;;;;5053121;28;20408;-75
2022/08/19 08:19:45;;;;;;;60.73;45.40;;;;;;;;;;5052462;28;20407;-75
2022/08/19 08:23:22;;;;;;;62.60;46.27;;;;;;;;;;5054805;28;20419;-76
2022/08/19 08:25:00;;;;;;;67.33;46.97;;;;;;;;;;5056810;28;20934;-75
2022/08/19 08:27:30;;;;;;;60.27;43.93;;;;;;;;;;5056905;28;20475;-75
2022/08/19 08:29:57;;;;;;;57.93;44.50;;;;;;;;;;5056651;28;20897;-75
2022/08/19 08:32:23;;;;;;;63.10;47.77;;;;;;;;;;5056603;28;20771;-75
2022/08/19 08:34:49;;;;;;;54.67;43.00;;;;;;;;;;5056625;28;20954;-74
2022/08/19 08:37:15;;;;;;;60.60;44.83;;;;;;;;;;5056747;28;20442;-74
2022/08/19 08:39:41;;;;;;;61.40;45.63;;;;;;;;;;5056326;28;20446;-74
2022/08/19 08:42:12;;;;;;;64.57;45.13;;;;;;;;;;5056522;28;20479;-75
2022/08/19 08:44:52;;;;;;;53.53;41.87;;;;;;;;;;5056260;28;20739;-75
2022/08/19 08:47:20;;;;;;;59.90;42.83;;;;;;;;;;5056531;28;20488;-75
2022/08/19 08:49:56;;;;;;;55.23;41.70;;;;;;;;;;5056383;28;20405;-75
2022/08/19 08:52:22;;;;;;;54.70;43.47;;;;;;;;;;5056552;28;20412;-74
2022/08/19 08:54:50;;;;;;;54.30;44.00;;;;;;;;;;5056351;28;20390;-75
2022/08/19 08:57:40;;;;;;;52.17;41.93;;;;;;;;;;5038404;28;20423;-75
2022/08/19 09:00:07;;;;;;;52.20;41.93;;;;;;;;;;5009825;28;20512;-75
2022/08/19 09:02:34;;;;;;;47.03;37.30;;;;;;;;;;5056186;28;20412;-75
2022/08/19 09:05:00;;;;;;;53.33;37.73;;;;;;;;;;5056072;28;20419;-75
2022/08/19 09:07:35;;;;;;;46.53;37.83;;;;;;;;;;5037968;28;20505;-76
2022/08/19 09:10:10;;;;;;;43.97;36.67;;;;;;;;;;5055653;28;20404;-75
2022/08/19 09:12:47;;;;;;;36.23;31.37;;;;;;;;;;5055962;28;20396;-75
2022/08/19 09:15:16;;;;;;;42.80;34.43;;;;;;;;;;5055955;28;20405;-76
2022/08/19 09:17:42;;;;;;;37.30;33.13;;;;;;;;;;5055893;28;20405;-76
2022/08/19 09:20:10;;;;;;;37.83;33.70;;;;;;;;;;5055331;28;20555;-76
2022/08/19 09:22:37;;;;;;;30.27;27.10;;;;;;;;;;5055562;28;20409;-75
2022/08/19 09:25:04;;;;;;;31.47;28.23;;;;;;;;;;5037798;28;20428;-76
2022/08/19 09:27:31;;;;;;;30.03;25.83;;;;;;;;;;5055494;28;20515;-76
2022/08/19 09:29:57;;;;;;;32.10;26.67;;;;;;;;;;5055293;28;20424;-76
2022/08/19 09:32:25;;;;;;;27.00;24.10;;;;;;;;;;5055356;28;20508;-75
2022/08/19 09:34:54;;;;;;;22.07;19.80;;;;;;;;;;5054361;28;20405;-76
2022/08/19 09:37:21;;;;;;;20.30;18.30;;;;;;;;;;5055529;28;20408;-76
2022/08/19 09:39:47;;;;;;;24.10;18.67;;;;;;;;;;5055199;28;20455;-75
2022/08/19 09:42:14;;;;;;;20.77;17.47;;;;;;;;;;5055396;28;20429;-75
2022/08/19 09:44:40;;;;;;;18.90;15.30;;;;;;;;;;5055318;28;20501;-76
2022/08/19 09:47:06;;;;;;;21.53;15.73;;;;;;;;;;5054934;28;20456;-76
2022/08/19 09:49:33;;;;;;;22.30;16.80;;;;;;;;;;5037093;28;20760;-75
2022/08/19 09:51:59;;;;;;;23.03;17.83;;;;;;;;;;5055177;28;20441;-75
2022/08/19 09:54:25;;;;;;;21.97;19.67;;;;;;;;;;5055341;28;20909;-75
2022/08/19 09:56:52;;;;;;;29.13;23.10;;;;;;;;;;5055061;28;20405;-76
2022/08/19 09:59:18;;;;;;;25.73;22.97;;;;;;;;;;5055481;28;20400;-75
2022/08/19 10:01:44;;;;;;;22.67;20.27;;;;;;;;;;5054792;28;20491;-76
2022/08/19 10:04:10;;;;;;;24.43;21.67;;;;;;;;;;5037290;28;20424;-75
2022/08/19 10:06:38;;;;;;;25.57;20.83;;;;;;;;;;5055073;28;20428;-76
2022/08/19 10:09:06;;;;;;;23.57;18.97;;;;;;;;;;5055022;28;20404;-76
2022/08/19 10:11:32;;;;;;;24.43;18.40;;;;;;;;;;5054631;28;20563;-75
2022/08/19 10:13:59;;;;;;;20.97;18.80;;;;;;;;;;5054942;28;21012;-75
2022/08/19 10:16:26;;;;;;;20.30;18.17;;;;;;;;;;5054777;28;20409;-75
2022/08/19 10:18:52;;;;;;;18.50;16.50;;;;;;;;;;5054612;28;20405;-76
2022/08/19 10:21:20;;;;;;;18.43;16.53;;;;;;;;;;5036492;28;20447;-75
2022/08/19 10:23:48;;;;;;;18.17;16.47;;;;;;;;;;5054783;28;20811;-76
2022/08/19 10:26:15;;;;;;;16.00;13.67;;;;;;;;;;5037240;28;20404;-76
2022/08/19 10:28:41;;;;;;;16.13;14.53;;;;;;;;;;5054589;28;20460;-73
2022/08/19 10:31:08;;;;;;;16.40;13.13;;;;;;;;;;5054048;28;20507;-75
2022/08/19 10:33:35;;;;;;;17.50;13.20;;;;;;;;;;5054488;28;20409;-74
2022/08/19 10:36:03;;;;;;;15.60;14.00;;;;;;;;;;5054489;28;20409;-75
2022/08/19 10:38:29;;;;;;;14.93;13.33;;;;;;;;;;5054294;28;20405;-75
2022/08/19 10:40:55;;;;;;;17.20;15.40;;;;;;;;;;5054046;28;20428;-75
2022/08/19 10:43:21;;;;;;;15.63;14.03;;;;;;;;;;5036696;28;20469;-75
2022/08/19 10:45:59;;;;;;;20.37;18.20;;;;;;;;;;5054027;28;20445;-74
2022/08/19 10:48:25;;;;;;;15.20;13.80;;;;;;;;;;5054466;28;20804;-75
2022/08/19 10:53:37;;;;;;;14.23;11.70;;;;;;;;;;5054289;28;20498;-75
2022/08/19 10:58:48;;;;;;;17.20;13.90;;;;;;;;;;5054590;28;20772;-74
2022/08/19 11:01:15;;;;;;;16.97;15.27;;;;;;;;;;5053572;28;20436;-74
2022/08/19 11:03:41;;;;;;;17.03;15.40;;;;;;;;;;5053812;28;20818;-74
2022/08/19 11:06:07;;;;;;;15.30;13.90;;;;;;;;;;5053821;28;20420;-75
2022/08/19 11:08:34;;;;;;;16.47;14.40;;;;;;;;;;5053755;28;20944;-74
2022/08/19 11:11:02;;;;;;;17.80;15.70;;;;;;;;;;5053421;28;20424;-75
2022/08/19 11:13:29;;;;;;;18.33;16.40;;;;;;;;;;5053807;28;20404;-75
2022/08/19 11:15:59;;;;;;;17.00;15.40;;;;;;;;;;5054004;28;20439;-76
2022/08/19 11:18:26;;;;;;;17.73;14.30;;;;;;;;;;5053805;28;20462;-75
2022/08/19 11:20:52;;;;;;;15.83;14.23;;;;;;;;;;5053379;28;20424;-75
2022/08/19 11:23:18;;;;;;;18.00;16.13;;;;;;;;;;5053527;28;20786;-75
2022/08/19 11:25:45;;;;;;;13.60;11.80;;;;;;;;;;5053523;28;20499;-75
2022/08/19 11:28:11;;;;;;;13.60;11.80;;;;;;;;;;5053513;28;20464;-75
2022/08/19 11:30:38;;;;;;;15.80;14.00;;;;;;;;;;5053165;28;20440;-75
2022/08/19 11:33:04;;;;;;;16.77;14.30;;;;;;;;;;5053520;28;20413;-75
2022/08/19 11:35:30;;;;;;;15.37;13.77;;;;;;;;;;5053168;28;20462;-75
2022/08/19 11:38:01;;;;;;;17.30;15.60;;;;;;;;;;5053473;28;20415;-75
2022/08/19 11:40:27;;;;;;;16.33;13.50;;;;;;;;;;5053390;28;20435;-75
2022/08/19 11:42:56;;;;;;;17.77;15.93;;;;;;;;;;5053392;28;20412;-75
2022/08/19 11:45:23;;;;;;;17.70;15.50;;;;;;;;;;5052917;28;20424;-76
2022/08/19 11:47:49;;;;;;;17.90;15.90;;;;;;;;;;5053161;28;20463;-75
2022/08/19 11:50:16;;;;;;;17.27;15.50;;;;;;;;;;5053067;28;20463;-75
2022/08/19 11:52:44;;;;;;;20.67;18.50;;;;;;;;;;5053168;28;20508;-76
2022/08/19 11:55:10;;;;;;;19.67;17.57;;;;;;;;;;5053236;28;20409;-75
2022/08/19 11:57:40;;;;;;;21.97;19.00;;;;;;;;;;5052409;28;20412;-75
2022/08/19 12:00:07;;;;;;;18.40;15.70;;;;;;;;;;5052728;28;20502;-75
2022/08/19 12:02:33;;;;;;;13.50;12.10;;;;;;;;;;5053262;28;20408;-75
2022/08/19 12:05:02;;;;;;;13.50;11.73;;;;;;;;;;5053098;28;20416;-75
2022/08/19 12:07:30;;;;;;;14.33;12.90;;;;;;;;;;5053013;28;20507;-75
2022/08/19 12:09:56;;;;;;;14.13;12.50;;;;;;;;;;5052422;28;20419;-75
2022/08/19 12:12:24;;;;;;;15.43;13.80;;;;;;;;;;5052972;28;20880;-75
2022/08/19 12:14:56;;;;;;;14.73;12.27;;;;;;;;;;5052993;28;20494;-74
2022/08/19 12:17:22;;;;;;;13.83;12.50;;;;;;;;;;5052854;28;20412;-74
2022/08/19 12:19:48;;;;;;;13.57;12.00;;;;;;;;;;5034705;28;20421;-74
2022/08/19 12:22:14;;;;;;;13.50;12.20;;;;;;;;;;5052913;28;20428;-75
2022/08/19 12:24:40;;;;;;;11.57;10.30;;;;;;;;;;5052791;28;20424;-75
2022/08/19 12:27:06;;;;;;;11.00;10.00;;;;;;;;;;5052765;28;20459;-74
2022/08/19 12:29:33;;;;;;;11.80;8.83;;;;;;;;;;5052367;28;20408;-75
2022/08/19 12:32:01;;;;;;;10.60;9.13;;;;;;;;;;5052580;28;20437;-75
2022/08/19 12:34:31;;;;;;;10.10;9.20;;;;;;;;;;5052621;28;20432;-75
2022/08/19 12:36:58;;;;;;;11.13;10.13;;;;;;;;;;5052760;28;20407;-75
2022/08/19 12:39:24;;;;;;;11.97;10.77;;;;;;;;;;5052784;28;20492;-76
2022/08/19 12:41:51;;;;;;;10.83;9.73;;;;;;;;;;5052233;28;20468;-75
2022/08/19 12:44:17;;;;;;;11.60;9.20;;;;;;;;;;5052599;28;20459;-74
2022/08/19 12:46:43;;;;;;;8.67;7.83;;;;;;;;;;5052501;28;20472;-74
2022/08/19 12:49:09;;;;;;;11.37;8.80;;;;;;;;;;5035018;28;20409;-75
2022/08/19 12:51:35;;;;;;;11.17;9.27;;;;;;;;;;5052081;28;20444;-74
2022/08/19 12:54:01;;;;;;;10.67;9.57;;;;;;;;;;5052455;28;20405;-74
2022/08/19 12:56:27;;;;;;;12.03;10.73;;;;;;;;;;5052882;28;20526;-75
2022/08/19 12:58:53;;;;;;;11.47;9.70;;;;;;;;;;5052617;28;20504;-74
2022/08/19 13:01:20;;;;;;;10.40;9.40;;;;;;;;;;5052123;28;20436;-75
2022/08/19 13:03:46;;;;;;;10.33;9.33;;;;;;;;;;5052444;28;20420;-74
2022/08/19 13:06:13;;;;;;;12.03;10.77;;;;;;;;;;5052458;28;20444;-75
2022/08/19 13:08:39;;;;;;;10.30;8.40;;;;;;;;;;5037068;28;20487;-74
2022/08/19 13:11:11;;;;;;;11.90;10.57;;;;;;;;;;5055675;28;20470;-75
2022/08/19 13:13:40;;;;;;;10.23;9.23;;;;;;;;;;5055949;28;20495;-75
2022/08/19 13:16:07;;;;;;;8.93;7.93;;;;;;;;;;5056094;28;20419;-75
2022/08/19 13:18:33;;;;;;;12.80;11.60;;;;;;;;;;5055973;28;20416;-75
2022/08/19 13:21:03;;;;;;;10.80;9.70;;;;;;;;;;5055624;28;20510;-75
2022/08/19 13:23:30;;;;;;;16.20;11.43;;;;;;;;;;5055949;28;20779;-74
2022/08/19 13:25:57;;;;;;;10.87;9.67;;;;;;;;;;5055829;28;20511;-75
2022/08/19 13:28:23;;;;;;;10.83;9.73;;;;;;;;;;5055617;28;20517;-74
2022/08/19 13:33:34;;;;;;;9.17;8.27;;;;;;;;;;5055918;28;20764;-75
2022/08/19 13:36:00;;;;;;;10.93;9.00;;;;;;;;;;5055610;28;20401;-74
2022/08/19 13:38:27;;;;;;;11.40;10.30;;;;;;;;;;5055441;28;20446;-74
2022/08/19 13:40:54;;;;;;;8.10;7.30;;;;;;;;;;5055138;28;20775;-74
2022/08/19 13:43:24;;;;;;;11.83;9.17;;;;;;;;;;5055625;28;20408;-74
2022/08/19 13:45:55;;;;;;;10.47;8.20;;;;;;;;;;5055749;28;20415;-74
2022/08/19 13:48:21;;;;;;;11.03;9.93;;;;;;;;;;5055068;28;20843;-74
2022/08/19 13:50:47;;;;;;;10.17;8.73;;;;;;;;;;5054907;28;20439;-74
2022/08/19 13:53:13;;;;;;;10.40;9.27;;;;;;;;;;5055384;28;20496;-74
2022/08/19 13:55:43;;;;;;;9.40;8.50;;;;;;;;;;5055392;28;20440;-74
2022/08/19 13:58:10;;;;;;;10.17;7.83;;;;;;;;;;5055172;28;20916;-74
2022/08/19 14:00:38;;;;;;;15.57;9.53;;;;;;;;;;5054741;28;20432;-74
2022/08/19 14:03:05;;;;;;;9.70;6.73;;;;;;;;;;5055039;28;20507;-74
2022/08/19 14:05:31;;;;;;;8.10;5.83;;;;;;;;;;5055020;28;20471;-74
2022/08/19 14:07:58;;;;;;;5.50;5.00;;;;;;;;;;5056627;28;20823;-75
2022/08/19 14:10:24;;;;;;;6.53;5.90;;;;;;;;;;5065829;28;20433;-75
2022/08/19 14:12:55;;;;;;;6.63;6.03;;;;;;;;;;5063271;28;20503;-75
2022/08/19 14:15:21;;;;;;;7.60;5.43;;;;;;;;;;5065587;28;20420;-74
2022/08/19 14:17:48;;;;;;;5.60;4.63;;;;;;;;;;5054970;28;20421;-75
2022/08/19 14:20:15;;;;;;;4.70;3.87;;;;;;;;;;5059189;28;20782;-74
2022/08/19 14:22:42;;;;;;;7.23;4.47;;;;;;;;;;5054360;28;20784;-75
2022/08/19 14:25:09;;;;;;;8.30;4.23;;;;;;;;;;5054775;28;20806;-75
2022/08/19 14:27:39;;;;;;;7.57;4.57;;;;;;;;;;5054701;28;20567;-74
2022/08/19 14:30:06;;;;;;;6.03;3.30;;;;;;;;;;5054841;28;20423;-74
2022/08/19 14:32:32;;;;;;;4.10;3.10;;;;;;;;;;5054374;28;20404;-74
2022/08/19 14:34:58;;;;;;;5.23;3.93;;;;;;;;;;5054373;28;20404;-74
2022/08/19 14:37:25;;;;;;;5.83;3.77;;;;;;;;;;5054471;28;20408;-74
2022/08/19 14:39:51;;;;;;;4.80;3.77;;;;;;;;;;5053969;28;20780;-75